Time;durP1;ratioP1;P1;durP2;ratioP2;P2;SDS_P1;SDS_P2;PMS_P1;PMS_P2;Temp;Humidity;BMP_temperature;BMP_pressure;BME280_temperature;BME280_humidity;BME280_pressure;Samples;Min_cycle;Max_cycle;Signal;HPM_P1;HPM_P2
2021/09/27 00:00:23;;;;;;;;;;;16.20;99.90;;;;;;5038710;28;19940;-76
2021/09/27 00:02:51;;;;;;;;;;;16.10;99.90;;;;;;5046962;28;20019;-76
2021/09/27 00:05:19;;;;;;;;;;;16.10;99.90;;;;;;5043433;28;19925;-75
2021/09/27 00:07:45;;;;;;;;;;;16.10;99.90;;;;;;5047918;28;19925;-75
2021/09/27 00:10:14;;;;;;;;;;;16.10;99.90;;;;;;5042641;28;19929;-75
2021/09/27 00:12:41;;;;;;;;;;;16.00;99.90;;;;;;5047081;28;19924;-76
2021/09/27 00:15:10;;;;;;;;;;;16.00;99.90;;;;;;5044312;28;19925;-76
2021/09/27 00:17:36;;;;;;;;;;;16.00;99.90;;;;;;5044468;28;19925;-75
2021/09/27 00:20:05;;;;;;;;;;;16.00;99.90;;;;;;5043795;28;19935;-76
2021/09/27 00:22:32;;;;;;;;;;;15.90;99.90;;;;;;5051477;28;19925;-77
2021/09/27 00:24:58;;;;;;;;;;;15.90;99.90;;;;;;5041726;28;19925;-77
2021/09/27 00:27:25;;;;;;;;;;;15.90;99.90;;;;;;5045256;28;19932;-76
2021/09/27 00:29:52;;;;;;;;;;;15.90;99.90;;;;;;5040289;28;19933;-76
2021/09/27 00:32:18;;;;;;;;;;;15.80;99.90;;;;;;5039024;28;19926;-75
2021/09/27 00:34:45;;;;;;;;;;;15.80;99.90;;;;;;5040024;28;19924;-76
2021/09/27 00:37:13;;;;;;;;;;;15.80;99.90;;;;;;5043310;28;19940;-77
2021/09/27 00:39:40;;;;;;;;;;;15.80;99.90;;;;;;5041111;28;19939;-77
2021/09/27 00:42:10;;;;;;;;;;;15.80;99.90;;;;;;5037673;28;20502;-77
2021/09/27 00:44:37;;;;;;;;;;;15.80;99.90;;;;;;5040365;28;19929;-76
2021/09/27 00:47:04;;;;;;;;;;;15.80;99.90;;;;;;5039907;28;19933;-76
2021/09/27 00:49:31;;;;;;;;;;;15.70;99.90;;;;;;5043427;28;19948;-76
2021/09/27 00:51:58;;;;;;;;;;;15.70;99.90;;;;;;5042967;28;19931;-76
2021/09/27 00:54:28;;;;;;;;;;;15.70;99.90;;;;;;5048060;28;19925;-76
2021/09/27 00:56:57;;;;;;;;;;;15.70;99.90;;;;;;5041340;28;19925;-76
2021/09/27 00:59:25;;;;;;;;;;;15.60;99.90;;;;;;5042881;28;19935;-75
2021/09/27 01:01:51;;;;;;;;;;;15.60;99.90;;;;;;5045675;28;20011;-75
2021/09/27 01:04:18;;;;;;;;;;;15.50;99.90;;;;;;5040583;28;20311;-76
2021/09/27 01:06:49;;;;;;;;;;;15.50;99.90;;;;;;5043032;28;19925;-75
2021/09/27 01:09:24;;;;;;;;;;;15.50;99.90;;;;;;5046302;28;19939;-76
2021/09/27 01:12:05;;;;;;;;;;;15.40;99.90;;;;;;5046755;28;19937;-74
2021/09/27 01:14:54;;;;;;;;;;;15.40;99.90;;;;;;5043142;28;19932;-74
2021/09/27 01:17:24;;;;;;;;;;;15.50;99.90;;;;;;5045357;28;20027;-76
2021/09/27 01:20:15;;;;;;;;;;;15.40;99.90;;;;;;5034061;28;19940;-75
2021/09/27 01:22:50;;;;;;;;;;;15.40;99.90;;;;;;5027018;28;19956;-75
2021/09/27 01:25:29;;;;;;;;;;;15.40;99.90;;;;;;5043430;28;19925;-74
2021/09/27 01:27:58;;;;;;;;;;;15.40;99.90;;;;;;5045543;28;19929;-74
2021/09/27 01:30:33;;;;;;;;;;;15.40;99.90;;;;;;5035163;28;19932;-75
2021/09/27 01:33:03;;;;;;;;;;;15.40;99.90;;;;;;5044362;28;19929;-75
2021/09/27 01:35:32;;;;;;;;;;;15.40;99.90;;;;;;5042960;28;20422;-75
2021/09/27 01:38:09;;;;;;;;;;;15.40;99.90;;;;;;5049115;28;19947;-75
2021/09/27 01:40:39;;;;;;;;;;;15.40;99.90;;;;;;5043107;28;19931;-75
2021/09/27 01:43:10;;;;;;;;;;;15.30;99.90;;;;;;5050224;28;20294;-75
2021/09/27 01:45:40;;;;;;;;;;;15.30;99.90;;;;;;5038978;28;20385;-75
2021/09/27 01:48:11;;;;;;;;;;;15.30;99.90;;;;;;5048288;28;19924;-75
2021/09/27 01:50:40;;;;;;;;;;;15.30;99.90;;;;;;5042802;28;19939;-75
2021/09/27 01:53:10;;;;;;;;;;;15.30;99.90;;;;;;5053131;28;20032;-75
2021/09/27 01:55:41;;;;;;;;;;;15.30;99.90;;;;;;5050095;28;19925;-76
2021/09/27 01:58:12;;;;;;;;;;;15.30;99.90;;;;;;5050633;28;19929;-76
2021/09/27 02:00:40;;;;;;;;;;;15.40;99.90;;;;;;5047875;28;20017;-75
2021/09/27 02:03:12;;;;;;;;;;;15.40;99.90;;;;;;5049390;28;19932;-76
2021/09/27 02:05:43;;;;;;;;;;;15.40;99.90;;;;;;5048966;28;19931;-75
2021/09/27 02:08:12;;;;;;;;;;;15.40;99.90;;;;;;5053403;28;19924;-76
2021/09/27 02:10:43;;;;;;;;;;;15.40;99.90;;;;;;5046759;28;20326;-76
2021/09/27 02:13:14;;;;;;;;;;;15.30;99.90;;;;;;5047805;28;20007;-76
2021/09/27 02:15:43;;;;;;;;;;;15.30;99.90;;;;;;5041495;28;20252;-76
2021/09/27 02:18:15;;;;;;;;;;;15.30;99.90;;;;;;5052813;28;19931;-76
2021/09/27 02:20:45;;;;;;;;;;;15.30;99.90;;;;;;5042863;28;20424;-77
2021/09/27 02:23:13;;;;;;;;;;;15.30;99.90;;;;;;5050583;28;19946;-76
2021/09/27 02:25:41;;;;;;;;;;;15.30;99.90;;;;;;5054499;28;19931;-76
2021/09/27 02:28:10;;;;;;;;;;;15.30;99.90;;;;;;5047676;28;19933;-76
2021/09/27 02:30:41;;;;;;;;;;;15.40;99.90;;;;;;5047053;28;19932;-76
2021/09/27 02:33:13;;;;;;;;;;;15.20;99.90;;;;;;5048248;28;19936;-75
2021/09/27 02:35:44;;;;;;;;;;;15.20;99.90;;;;;;5038383;28;19924;-77
2021/09/27 02:38:15;;;;;;;;;;;15.20;99.90;;;;;;5045992;28;19932;-76
2021/09/27 02:40:46;;;;;;;;;;;15.10;99.90;;;;;;5049176;28;19925;-76
2021/09/27 02:43:13;;;;;;;;;;;15.20;99.90;;;;;;5043360;28;19958;-76
2021/09/27 02:45:43;;;;;;;;;;;15.20;99.90;;;;;;5044920;28;19954;-76
2021/09/27 02:48:14;;;;;;;;;;;15.20;99.90;;;;;;5042835;28;19933;-75
2021/09/27 02:50:43;;;;;;;;;;;15.20;99.90;;;;;;5042115;28;19925;-75
2021/09/27 02:53:10;;;;;;;;;;;15.20;99.90;;;;;;5045753;28;19925;-75
2021/09/27 02:55:42;;;;;;;;;;;15.20;99.90;;;;;;5040523;28;19931;-76
2021/09/27 02:58:15;;;;;;;;;;;15.20;99.90;;;;;;5037331;28;19925;-75
2021/09/27 03:00:47;;;;;;;;;;;15.20;99.90;;;;;;5044880;28;19924;-76
2021/09/27 03:03:19;;;;;;;;;;;15.20;99.90;;;;;;5051001;28;20391;-76
2021/09/27 03:05:55;;;;;;;;;;;15.20;99.90;;;;;;5049332;28;19928;-76
2021/09/27 03:08:30;;;;;;;;;;;15.20;99.90;;;;;;5040395;28;20388;-76
2021/09/27 03:11:07;;;;;;;;;;;15.20;99.90;;;;;;5049287;28;19935;-76
2021/09/27 03:13:38;;;;;;;;;;;15.00;99.90;;;;;;5039483;28;19935;-76
2021/09/27 03:16:11;;;;;;;;;;;15.10;99.90;;;;;;5050409;28;19931;-76
2021/09/27 03:18:44;;;;;;;;;;;15.20;99.90;;;;;;5048392;28;19933;-75
2021/09/27 03:21:21;;;;;;;;;;;15.10;99.90;;;;;;5047212;28;20306;-75
2021/09/27 03:23:52;;;;;;;;;;;15.10;99.90;;;;;;5045197;28;19932;-75
2021/09/27 03:26:24;;;;;;;;;;;15.10;99.90;;;;;;5047798;28;19925;-75
2021/09/27 03:28:54;;;;;;;;;;;15.10;99.90;;;;;;5041470;28;19939;-75
2021/09/27 03:31:25;;;;;;;;;;;15.00;99.90;;;;;;5039467;28;19925;-74
2021/09/27 03:34:01;;;;;;;;;;;15.00;99.90;;;;;;5041140;28;19929;-77
2021/09/27 03:36:42;;;;;;;;;;;15.00;99.90;;;;;;5044098;28;20497;-77
2021/09/27 03:39:12;;;;;;;;;;;15.10;99.90;;;;;;5049328;28;20023;-77
2021/09/27 03:41:41;;;;;;;;;;;15.10;99.90;;;;;;5040877;28;19925;-77
2021/09/27 03:44:11;;;;;;;;;;;15.10;99.90;;;;;;5049220;28;19925;-78
2021/09/27 03:46:42;;;;;;;;;;;15.10;99.90;;;;;;5046597;28;19941;-78
2021/09/27 03:49:11;;;;;;;;;;;15.10;99.90;;;;;;5048770;28;19925;-78
2021/09/27 03:51:42;;;;;;;;;;;15.10;99.90;;;;;;5036595;28;19928;-78
2021/09/27 03:54:14;;;;;;;;;;;15.10;99.90;;;;;;5043217;28;20015;-76
2021/09/27 03:56:43;;;;;;;;;;;15.10;99.90;;;;;;5047377;28;19925;-78
2021/09/27 03:59:15;;;;;;;;;;;15.10;99.90;;;;;;5047888;28;19925;-78
2021/09/27 04:01:45;;;;;;;;;;;15.10;99.90;;;;;;5045168;28;19972;-77
2021/09/27 04:04:17;;;;;;;;;;;15.10;99.90;;;;;;5044981;28;19924;-77
2021/09/27 04:06:49;;;;;;;;;;;15.10;99.90;;;;;;5050525;28;19925;-77
2021/09/27 04:09:20;;;;;;;;;;;15.00;99.90;;;;;;5048328;28;19925;-77
2021/09/27 04:11:53;;;;;;;;;;;15.10;99.90;;;;;;5040502;28;19935;-77
2021/09/27 04:14:23;;;;;;;;;;;15.10;99.90;;;;;;5044323;28;19925;-77
2021/09/27 04:16:56;;;;;;;;;;;15.10;99.90;;;;;;5048811;28;19932;-77
2021/09/27 04:19:24;;;;;;;;;;;15.10;99.90;;;;;;5047607;28;19925;-76
2021/09/27 04:21:56;;;;;;;;;;;15.10;99.90;;;;;;5049402;28;20292;-75
2021/09/27 04:24:29;;;;;;;;;;;15.00;99.90;;;;;;5044633;28;19925;-76
2021/09/27 04:27:04;;;;;;;;;;;15.00;99.90;;;;;;5044902;28;19964;-77
2021/09/27 04:29:42;;;;;;;;;;;15.00;99.90;;;;;;5044534;28;20011;-78
2021/09/27 04:32:12;;;;;;;;;;;15.00;99.90;;;;;;5043991;28;19931;-79
2021/09/27 04:34:47;;;;;;;;;;;15.00;99.90;;;;;;5046500;28;19959;-77
2021/09/27 04:37:17;;;;;;;;;;;15.00;99.90;;;;;;5034812;28;19931;-78
2021/09/27 04:39:45;;;;;;;;;;;15.20;99.90;;;;;;5035757;28;19939;-78
2021/09/27 04:42:29;;;;;;;;;;;15.20;99.90;;;;;;5038825;28;19931;-78
2021/09/27 04:45:04;;;;;;;;;;;15.20;99.90;;;;;;5040527;28;20407;-78
2021/09/27 04:47:38;;;;;;;;;;;15.20;99.90;;;;;;5038037;28;19929;-78
2021/09/27 04:50:09;;;;;;;;;;;15.30;99.90;;;;;;5040274;28;19925;-79
2021/09/27 04:52:43;;;;;;;;;;;15.40;99.90;;;;;;5038294;28;20024;-79
2021/09/27 04:55:13;;;;;;;;;;;15.40;99.90;;;;;;5039259;28;20018;-79
2021/09/27 04:57:50;;;;;;;;;;;15.50;99.90;;;;;;5043726;28;19931;-79
2021/09/27 05:00:20;;;;;;;;;;;15.50;99.90;;;;;;5041110;28;19931;-79
2021/09/27 05:02:54;;;;;;;;;;;15.50;99.90;;;;;;5048969;28;20344;-79
2021/09/27 05:05:29;;;;;;;;;;;15.60;99.90;;;;;;5042886;28;19960;-79
2021/09/27 05:08:13;;;;;;;;;;;15.60;99.90;;;;;;5049442;28;20295;-80
2021/09/27 05:11:10;;;;;;;;;;;15.60;99.90;;;;;;5045570;28;20345;-79
2021/09/27 05:13:50;;;;;;;;;;;15.60;99.90;;;;;;5007720;28;19940;-79
2021/09/27 05:16:21;;;;;;;;;;;15.70;99.90;;;;;;5040190;28;19929;-79
2021/09/27 05:18:58;;;;;;;;;;;15.70;99.90;;;;;;5045103;28;20006;-78
2021/09/27 05:21:34;;;;;;;;;;;15.70;99.90;;;;;;5049497;28;19931;-78
2021/09/27 05:24:13;;;;;;;;;;;15.70;99.90;;;;;;5047930;28;19931;-79
2021/09/27 05:26:44;;;;;;;;;;;15.80;99.90;;;;;;5047883;28;19931;-81
2021/09/27 05:29:17;;;;;;;;;;;15.80;99.90;;;;;;5047359;28;19932;-80
2021/09/27 05:31:54;;;;;;;;;;;15.80;99.90;;;;;;5049610;28;19931;-80
2021/09/27 05:34:24;;;;;;;;;;;15.80;99.90;;;;;;5038721;28;19929;-80
2021/09/27 05:37:02;;;;;;;;;;;15.90;99.90;;;;;;5049016;28;19924;-80
2021/09/27 05:39:38;;;;;;;;;;;15.90;99.90;;;;;;5046049;28;20109;-79
2021/09/27 05:42:09;;;;;;;;;;;16.00;99.90;;;;;;5050310;28;19967;-79
2021/09/27 05:44:41;;;;;;;;;;;15.90;99.90;;;;;;5047357;28;20420;-78
2021/09/27 05:47:13;;;;;;;;;;;16.00;99.90;;;;;;5047326;28;20384;-78
2021/09/27 05:49:46;;;;;;;;;;;16.00;99.90;;;;;;5048118;28;20351;-78
2021/09/27 05:52:16;;;;;;;;;;;16.10;99.90;;;;;;5050900;28;19925;-78
2021/09/27 05:54:48;;;;;;;;;;;16.10;99.90;;;;;;5048746;28;20019;-78
2021/09/27 05:57:17;;;;;;;;;;;16.10;99.90;;;;;;5048996;28;19981;-78
2021/09/27 05:59:46;;;;;;;;;;;16.10;99.90;;;;;;5053494;28;19931;-78
2021/09/27 06:02:21;;;;;;;;;;;16.20;99.90;;;;;;5054671;28;19943;-77
2021/09/27 06:04:55;;;;;;;;;;;16.20;99.90;;;;;;5047640;28;19935;-79
2021/09/27 06:07:26;;;;;;;;;;;16.30;99.90;;;;;;5043092;28;20623;-79
2021/09/27 06:09:58;;;;;;;;;;;16.30;99.90;;;;;;5036305;28;19925;-77
2021/09/27 06:12:28;;;;;;;;;;;16.40;99.90;;;;;;5042221;28;19932;-80
2021/09/27 06:14:57;;;;;;;;;;;16.50;99.90;;;;;;5036042;28;20450;-78
2021/09/27 06:17:29;;;;;;;;;;;16.50;99.90;;;;;;5041444;28;19933;-78
2021/09/27 06:20:02;;;;;;;;;;;16.50;99.90;;;;;;5045203;28;20309;-77
2021/09/27 06:22:46;;;;;;;;;;;16.60;99.90;;;;;;5046814;28;19929;-77
2021/09/27 06:25:19;;;;;;;;;;;16.60;99.90;;;;;;5033599;28;19929;-78
2021/09/27 06:27:59;;;;;;;;;;;16.70;99.90;;;;;;5047966;28;20376;-80
2021/09/27 06:30:29;;;;;;;;;;;16.70;99.90;;;;;;5051015;28;20361;-80
2021/09/27 06:33:00;;;;;;;;;;;16.70;99.90;;;;;;5048388;28;20008;-79
2021/09/27 06:35:29;;;;;;;;;;;16.70;99.90;;;;;;5050850;28;20293;-79
2021/09/27 06:37:59;;;;;;;;;;;16.80;99.90;;;;;;5059272;28;19978;-79
2021/09/27 06:40:27;;;;;;;;;;;16.80;99.90;;;;;;5043642;28;19979;-78
2021/09/27 06:42:54;;;;;;;;;;;17.00;99.90;;;;;;5048169;28;20405;-79
2021/09/27 06:45:21;;;;;;;;;;;17.10;99.90;;;;;;5047641;28;19932;-79
2021/09/27 06:47:48;;;;;;;;;;;17.20;99.90;;;;;;5045998;28;20303;-79
2021/09/27 06:50:15;;;;;;;;;;;17.30;99.90;;;;;;5040527;28;19925;-80
2021/09/27 06:52:42;;;;;;;;;;;17.20;99.90;;;;;;5046200;28;20372;-81
2021/09/27 06:55:11;;;;;;;;;;;17.20;99.90;;;;;;5050007;28;19925;-82
2021/09/27 06:57:39;;;;;;;;;;;17.20;99.90;;;;;;5048523;28;20023;-80
2021/09/27 07:00:08;;;;;;;;;;;17.20;99.90;;;;;;5047626;28;20007;-82
2021/09/27 07:02:35;;;;;;;;;;;17.20;99.90;;;;;;5046528;28;20056;-78
2021/09/27 07:05:01;;;;;;;;;;;17.20;99.90;;;;;;5044667;28;20012;-79
2021/09/27 07:07:28;;;;;;;;;;;17.20;99.90;;;;;;5039931;28;19925;-79
2021/09/27 07:09:55;;;;;;;;;;;17.20;99.90;;;;;;5038445;28;19931;-80
2021/09/27 07:12:21;;;;;;;;;;;17.20;99.90;;;;;;5046587;28;19925;-80
2021/09/27 07:14:49;;;;;;;;;;;17.30;99.90;;;;;;5043914;28;19925;-78
2021/09/27 07:17:16;;;;;;;;;;;17.30;99.90;;;;;;5040099;28;19933;-78
2021/09/27 07:19:43;;;;;;;;;;;17.30;99.90;;;;;;5042114;28;19925;-78
2021/09/27 07:22:10;;;;;;;;;;;17.30;99.90;;;;;;5043394;28;19929;-78
2021/09/27 07:24:37;;;;;;;;;;;17.30;99.90;;;;;;5037597;28;19925;-78
2021/09/27 07:27:04;;;;;;;;;;;17.40;99.90;;;;;;5041334;28;19966;-78
2021/09/27 07:29:31;;;;;;;;;;;17.40;99.90;;;;;;5040464;28;19928;-78
2021/09/27 07:31:59;;;;;;;;;;;17.40;99.90;;;;;;5043091;28;19924;-76
2021/09/27 07:34:25;;;;;;;;;;;17.40;99.90;;;;;;5038229;28;20360;-76
2021/09/27 07:36:52;;;;;;;;;;;17.40;99.90;;;;;;5047274;28;20291;-78
2021/09/27 07:39:19;;;;;;;;;;;17.50;99.90;;;;;;5039323;28;19932;-78
2021/09/27 07:41:46;;;;;;;;;;;17.50;99.90;;;;;;5038590;28;19932;-79
2021/09/27 07:44:13;;;;;;;;;;;17.50;99.90;;;;;;5038018;28;20032;-78
2021/09/27 07:46:40;;;;;;;;;;;17.60;99.90;;;;;;5045231;28;19925;-80
2021/09/27 07:49:08;;;;;;;;;;;17.60;99.90;;;;;;5046635;28;19933;-78
2021/09/27 07:51:37;;;;;;;;;;;17.70;99.90;;;;;;5044273;28;19971;-79
2021/09/27 07:54:04;;;;;;;;;;;17.80;99.90;;;;;;5041733;28;19929;-80
2021/09/27 07:56:31;;;;;;;;;;;18.00;99.90;;;;;;5041774;28;19932;-80
2021/09/27 07:58:57;;;;;;;;;;;18.10;99.90;;;;;;5038477;28;20006;-81
2021/09/27 08:01:24;;;;;;;;;;;18.10;99.90;;;;;;5042322;28;20312;-77
2021/09/27 08:03:50;;;;;;;;;;;18.00;99.90;;;;;;5039184;28;20446;-78
2021/09/27 08:06:19;;;;;;;;;;;18.10;99.90;;;;;;5040551;28;20087;-80
2021/09/27 08:08:46;;;;;;;;;;;18.10;99.90;;;;;;5041830;28;20224;-78
2021/09/27 08:11:12;;;;;;;;;;;18.20;99.90;;;;;;5046546;28;19925;-79
2021/09/27 08:13:39;;;;;;;;;;;18.30;99.90;;;;;;5047673;28;20379;-78
2021/09/27 08:16:06;;;;;;;;;;;18.40;99.90;;;;;;5038179;28;19937;-79
2021/09/27 08:18:32;;;;;;;;;;;18.40;99.90;;;;;;5043519;28;20395;-76
2021/09/27 08:21:01;;;;;;;;;;;18.40;99.90;;;;;;5042959;28;19976;-72
2021/09/27 08:23:29;;;;;;;;;;;18.40;99.90;;;;;;5040549;28;20682;-74
2021/09/27 08:25:56;;;;;;;;;;;18.40;99.90;;;;;;5045506;28;19928;-75
2021/09/27 08:28:23;;;;;;;;;;;18.50;99.90;;;;;;5054571;28;19925;-75
2021/09/27 08:30:52;;;;;;;;;;;18.50;99.90;;;;;;5038971;28;20406;-74
2021/09/27 08:33:20;;;;;;;;;;;18.50;99.90;;;;;;5034743;28;19995;-74
2021/09/27 08:35:47;;;;;;;;;;;18.50;99.90;;;;;;5045091;28;19925;-74
2021/09/27 08:38:15;;;;;;;;;;;18.40;99.90;;;;;;5041850;28;19929;-76
2021/09/27 08:40:52;;;;;;;;;;;18.30;99.90;;;;;;5041984;28;19986;-73
2021/09/27 08:43:20;;;;;;;;;;;18.20;99.90;;;;;;5041093;28;19932;-76
2021/09/27 08:45:47;;;;;;;;;;;18.10;99.90;;;;;;5033960;28;19925;-75
2021/09/27 08:48:22;;;;;;;;;;;18.20;99.90;;;;;;5041457;28;19944;-74
2021/09/27 08:50:49;;;;;;;;;;;18.30;99.90;;;;;;5043776;28;19924;-74
2021/09/27 08:53:25;;;;;;;;;;;18.30;99.90;;;;;;5038797;28;19925;-73
2021/09/27 08:55:57;;;;;;;;;;;18.40;99.90;;;;;;5042861;28;19932;-74
2021/09/27 08:58:27;;;;;;;;;;;18.40;99.90;;;;;;5038642;28;20054;-74
2021/09/27 09:00:57;;;;;;;;;;;18.60;99.90;;;;;;5044293;28;19925;-78
2021/09/27 09:03:27;;;;;;;;;;;18.60;99.90;;;;;;5041739;28;19972;-76
2021/09/27 09:05:56;;;;;;;;;;;18.60;99.90;;;;;;5044125;28;20307;-76
2021/09/27 09:08:25;;;;;;;;;;;18.50;99.90;;;;;;5047827;28;19924;-78
2021/09/27 09:10:55;;;;;;;;;;;18.60;99.90;;;;;;5050936;28;19924;-74
2021/09/27 09:13:23;;;;;;;;;;;18.50;99.90;;;;;;5044788;28;19945;-75
2021/09/27 09:15:55;;;;;;;;;;;18.60;99.90;;;;;;5045091;28;19929;-75
2021/09/27 09:18:24;;;;;;;;;;;18.40;99.90;;;;;;5045866;28;20389;-75
2021/09/27 09:20:53;;;;;;;;;;;18.50;99.90;;;;;;5043957;28;19925;-74
2021/09/27 09:23:22;;;;;;;;;;;18.60;99.90;;;;;;5044823;28;19925;-79
2021/09/27 09:25:49;;;;;;;;;;;18.60;99.90;;;;;;5042718;28;19932;-76
2021/09/27 09:28:17;;;;;;;;;;;18.60;99.90;;;;;;5042197;28;19943;-75
2021/09/27 09:30:45;;;;;;;;;;;18.60;99.90;;;;;;5041562;28;19925;-75
2021/09/27 09:33:27;;;;;;;;;;;18.50;99.90;;;;;;5042340;28;19928;-79
2021/09/27 09:35:56;;;;;;;;;;;18.60;99.90;;;;;;5037538;28;19929;-79
2021/09/27 09:38:23;;;;;;;;;;;18.60;99.90;;;;;;5043336;28;19937;-79
2021/09/27 09:40:51;;;;;;;;;;;18.50;99.90;;;;;;5042397;28;20003;-76
2021/09/27 09:43:27;;;;;;;;;;;18.50;99.90;;;;;;5039009;28;19925;-75
2021/09/27 09:46:01;;;;;;;;;;;18.50;99.90;;;;;;5035371;28;19925;-77
2021/09/27 09:48:28;;;;;;;;;;;18.60;99.90;;;;;;5034088;28;20020;-76
2021/09/27 09:50:57;;;;;;;;;;;18.50;99.90;;;;;;5034974;28;19925;-76
2021/09/27 09:53:25;;;;;;;;;;;18.50;99.90;;;;;;5035673;28;20446;-77
2021/09/27 09:55:57;;;;;;;;;;;18.60;99.90;;;;;;5046195;28;19933;-76
2021/09/27 09:58:38;;;;;;;;;;;18.60;99.90;;;;;;5048239;28;19925;-76
2021/09/27 10:01:07;;;;;;;;;;;18.70;99.90;;;;;;5045877;28;20415;-76
2021/09/27 10:03:35;;;;;;;;;;;18.70;99.90;;;;;;5045027;28;20414;-75
2021/09/27 10:06:03;;;;;;;;;;;18.80;99.90;;;;;;5042377;28;19931;-74
2021/09/27 10:08:30;;;;;;;;;;;18.80;99.90;;;;;;5045689;28;19931;-75
2021/09/27 10:10:58;;;;;;;;;;;18.90;99.90;;;;;;5041094;28;20023;-75
2021/09/27 10:13:27;;;;;;;;;;;19.00;99.90;;;;;;5040580;28;19925;-75
2021/09/27 10:15:56;;;;;;;;;;;19.20;99.90;;;;;;5042436;28;19925;-75
2021/09/27 10:18:24;;;;;;;;;;;19.20;99.90;;;;;;5043445;28;19933;-75
2021/09/27 10:21:01;;;;;;;;;;;19.10;99.90;;;;;;5041759;28;19982;-75
2021/09/27 10:23:28;;;;;;;;;;;19.30;99.90;;;;;;5043838;28;19937;-73
2021/09/27 10:25:55;;;;;;;;;;;19.30;99.90;;;;;;5043553;28;19934;-74
2021/09/27 10:28:22;;;;;;;;;;;19.30;99.90;;;;;;5043508;28;19952;-75
2021/09/27 10:30:50;;;;;;;;;;;19.30;99.90;;;;;;5042194;28;19925;-76
2021/09/27 10:33:20;;;;;;;;;;;19.50;99.90;;;;;;5048676;28;19924;-74
2021/09/27 10:35:50;;;;;;;;;;;19.40;99.90;;;;;;5046145;28;19924;-75
2021/09/27 10:38:20;;;;;;;;;;;19.60;99.90;;;;;;5049068;28;19925;-74
2021/09/27 10:40:48;;;;;;;;;;;19.90;99.90;;;;;;5046834;28;19925;-76
2021/09/27 10:43:17;;;;;;;;;;;20.10;99.90;;;;;;5044881;28;19925;-74
2021/09/27 10:45:47;;;;;;;;;;;20.20;99.90;;;;;;5041363;28;19925;-74
2021/09/27 10:48:15;;;;;;;;;;;20.20;99.90;;;;;;5039653;28;20027;-74
2021/09/27 10:50:46;;;;;;;;;;;20.20;99.90;;;;;;5038638;28;20015;-73
2021/09/27 10:53:15;;;;;;;;;;;20.30;99.90;;;;;;5045702;28;20004;-74
2021/09/27 10:55:49;;;;;;;;;;;20.40;99.90;;;;;;5042868;28;19933;-74
2021/09/27 10:58:28;;;;;;;;;;;20.70;99.90;;;;;;5034843;28;19924;-74
2021/09/27 11:00:55;;;;;;;;;;;20.80;99.90;;;;;;5036431;28;19972;-74
2021/09/27 11:03:23;;;;;;;;;;;20.90;99.90;;;;;;5043930;28;19931;-75
2021/09/27 11:05:55;;;;;;;;;;;20.90;99.90;;;;;;5043212;28;19925;-75
2021/09/27 11:08:33;;;;;;;;;;;20.70;99.90;;;;;;5045549;28;19929;-75
2021/09/27 11:11:00;;;;;;;;;;;20.80;99.90;;;;;;5041853;28;19991;-78
2021/09/27 11:13:35;;;;;;;;;;;20.90;99.90;;;;;;5042221;28;19933;-80
2021/09/27 11:16:07;;;;;;;;;;;20.90;99.90;;;;;;5046704;28;20359;-79
2021/09/27 11:18:34;;;;;;;;;;;20.70;99.90;;;;;;5041157;28;20012;-78
2021/09/27 11:21:17;;;;;;;;;;;20.40;99.90;;;;;;5040880;28;20311;-78
2021/09/27 11:23:45;;;;;;;;;;;20.30;99.90;;;;;;5047802;28;20311;-78
2021/09/27 11:26:26;;;;;;;;;;;20.30;99.90;;;;;;5044625;28;19970;-77
2021/09/27 11:28:54;;;;;;;;;;;20.20;99.90;;;;;;5019547;28;20463;-77
2021/09/27 11:31:31;;;;;;;;;;;20.00;99.90;;;;;;5044463;28;19924;-76
2021/09/27 11:34:00;;;;;;;;;;;19.90;99.90;;;;;;5038847;28;20536;-76
2021/09/27 11:36:50;;;;;;;;;;;19.70;99.90;;;;;;5040905;28;19925;-76
2021/09/27 11:39:34;;;;;;;;;;;19.70;99.90;;;;;;5037922;28;19932;-76
2021/09/27 11:42:15;;;;;;;;;;;19.60;99.90;;;;;;5045154;28;19929;-75
2021/09/27 11:44:52;;;;;;;;;;;19.90;99.90;;;;;;5039359;28;19925;-77
2021/09/27 11:47:29;;;;;;;;;;;19.90;99.90;;;;;;5032599;28;19940;-77
2021/09/27 11:50:02;;;;;;;;;;;19.90;99.90;;;;;;5039769;28;19939;-76
2021/09/27 11:52:43;;;;;;;;;;;19.60;99.90;;;;;;5046117;28;20403;-77
2021/09/27 11:55:11;;;;;;;;;;;19.50;99.90;;;;;;5038077;28;19925;-78
2021/09/27 11:57:40;;;;;;;;;;;19.30;99.90;;;;;;5050317;28;19925;-75
2021/09/27 12:00:09;;;;;;;;;;;19.10;99.90;;;;;;5037105;28;19932;-77
2021/09/27 12:02:41;;;;;;;;;;;18.70;99.90;;;;;;5044850;28;19940;-78
2021/09/27 12:05:26;;;;;;;;;;;18.40;99.90;;;;;;5039105;28;19931;-74
2021/09/27 12:07:56;;;;;;;;;;;18.20;99.90;;;;;;5041166;28;20299;-77
2021/09/27 12:10:25;;;;;;;;;;;18.00;99.90;;;;;;5035230;28;19924;-74
2021/09/27 12:12:53;;;;;;;;;;;17.90;99.90;;;;;;5038358;28;19979;-76
2021/09/27 12:15:22;;;;;;;;;;;17.80;99.90;;;;;;5037983;28;19924;-75
2021/09/27 12:17:48;;;;;;;;;;;17.80;99.90;;;;;;5039119;28;20012;-77
2021/09/27 12:20:18;;;;;;;;;;;17.80;99.90;;;;;;5042304;28;20035;-77
2021/09/27 12:22:46;;;;;;;;;;;17.80;99.90;;;;;;5041465;28;19944;-78
2021/09/27 12:25:16;;;;;;;;;;;17.80;99.90;;;;;;5031695;28;19932;-77
2021/09/27 12:27:48;;;;;;;;;;;17.80;99.90;;;;;;5042584;28;20027;-75
2021/09/27 12:30:16;;;;;;;;;;;17.70;99.90;;;;;;5041999;28;19925;-75
2021/09/27 12:32:50;;;;;;;;;;;17.60;99.90;;;;;;5041977;28;19931;-75
2021/09/27 12:35:18;;;;;;;;;;;17.70;99.90;;;;;;5035473;28;19931;-75
2021/09/27 12:37:45;;;;;;;;;;;17.80;99.90;;;;;;5036766;28;20515;-75
2021/09/27 12:40:15;;;;;;;;;;;17.80;99.90;;;;;;5035946;28;19928;-76
2021/09/27 12:42:44;;;;;;;;;;;18.00;99.90;;;;;;5034097;28;19967;-75
2021/09/27 12:45:14;;;;;;;;;;;17.80;99.90;;;;;;5037113;28;19932;-77
2021/09/27 12:47:43;;;;;;;;;;;17.90;99.90;;;;;;5042324;28;20131;-78
2021/09/27 12:50:11;;;;;;;;;;;17.90;99.90;;;;;;5039586;28;19925;-78
2021/09/27 12:52:42;;;;;;;;;;;17.80;99.90;;;;;;5042714;28;19929;-77
2021/09/27 12:55:10;;;;;;;;;;;17.70;99.90;;;;;;5047329;28;19924;-74
2021/09/27 12:57:41;;;;;;;;;;;17.60;99.90;;;;;;5047126;28;19929;-77
2021/09/27 13:00:09;;;;;;;;;;;17.50;99.90;;;;;;5039652;28;19994;-78
2021/09/27 13:02:40;;;;;;;;;;;17.50;99.90;;;;;;5044561;28;20326;-76
2021/09/27 13:05:11;;;;;;;;;;;17.50;99.90;;;;;;5045649;28;20009;-74
2021/09/27 13:07:38;;;;;;;;;;;17.40;99.90;;;;;;5036588;28;19947;-75
2021/09/27 13:10:09;;;;;;;;;;;17.30;99.90;;;;;;5044619;28;19924;-76
2021/09/27 13:12:37;;;;;;;;;;;17.30;99.90;;;;;;5041144;28;19945;-75
2021/09/27 13:15:07;;;;;;;;;;;17.30;99.90;;;;;;5043255;28;19931;-75
2021/09/27 13:17:34;;;;;;;;;;;17.10;99.90;;;;;;5032371;28;19925;-77
2021/09/27 13:20:06;;;;;;;;;;;17.00;99.90;;;;;;5043341;28;19924;-77
2021/09/27 13:22:41;;;;;;;;;;;16.90;99.90;;;;;;5040716;28;19932;-77
2021/09/27 13:25:11;;;;;;;;;;;16.90;99.90;;;;;;5018365;28;20006;-77
2021/09/27 13:27:40;;;;;;;;;;;16.90;99.90;;;;;;5034182;28;19924;-78
2021/09/27 13:30:14;;;;;;;;;;;16.80;99.90;;;;;;5047779;28;20027;-78
2021/09/27 13:32:49;;;;;;;;;;;16.70;99.90;;;;;;5046689;28;19925;-81
2021/09/27 13:35:22;;;;;;;;;;;16.50;99.90;;;;;;5042810;28;20372;-79
2021/09/27 13:37:58;;;;;;;;;;;16.60;99.90;;;;;;5043358;28;19967;-76
2021/09/27 13:40:26;;;;;;;;;;;16.70;99.90;;;;;;5051917;28;20375;-78
2021/09/27 13:43:04;;;;;;;;;;;16.80;99.90;;;;;;5046453;28;19929;-78
2021/09/27 13:45:35;;;;;;;;;;;16.70;99.90;;;;;;5033515;28;19971;-79
2021/09/27 13:48:01;;;;;;;;;;;16.70;99.90;;;;;;5040467;28;19931;-79
2021/09/27 13:50:28;;;;;;;;;;;16.80;99.90;;;;;;5044334;28;19963;-78
2021/09/27 13:52:59;;;;;;;;;;;16.80;99.90;;;;;;5036851;28;20024;-79
2021/09/27 13:55:26;;;;;;;;;;;16.80;99.90;;;;;;5039660;28;19925;-78
2021/09/27 13:57:53;;;;;;;;;;;16.80;99.90;;;;;;5041679;28;19933;-81
2021/09/27 14:00:19;;;;;;;;;;;16.80;99.90;;;;;;5045494;28;19968;-80
2021/09/27 14:02:47;;;;;;;;;;;16.90;99.90;;;;;;5041888;28;19925;-79
2021/09/27 14:05:15;;;;;;;;;;;17.00;99.90;;;;;;5048324;28;20315;-80
2021/09/27 14:07:42;;;;;;;;;;;17.00;99.90;;;;;;5047622;28;19925;-79
2021/09/27 14:10:10;;;;;;;;;;;16.90;99.90;;;;;;5049113;28;19924;-80
2021/09/27 14:12:36;;;;;;;;;;;16.90;99.90;;;;;;5050408;28;19924;-79
2021/09/27 14:15:04;;;;;;;;;;;16.80;99.90;;;;;;5039973;28;19931;-79
2021/09/27 14:17:31;;;;;;;;;;;16.80;99.90;;;;;;5039992;28;20319;-79
2021/09/27 14:19:59;;;;;;;;;;;16.80;99.90;;;;;;5044857;28;19925;-79
2021/09/27 14:22:28;;;;;;;;;;;16.90;99.90;;;;;;5044370;28;20000;-79
2021/09/27 14:24:54;;;;;;;;;;;16.90;99.90;;;;;;5040644;28;20363;-78
2021/09/27 14:27:21;;;;;;;;;;;17.00;99.90;;;;;;5041663;28;20303;-79
2021/09/27 14:29:49;;;;;;;;;;;17.10;99.90;;;;;;5043654;28;20335;-79
2021/09/27 14:32:15;;;;;;;;;;;17.10;99.90;;;;;;5048991;28;19932;-79
2021/09/27 14:34:42;;;;;;;;;;;17.10;99.90;;;;;;5043432;28;19925;-79